Time;durP1;ratioP1;P1;durP2;ratioP2;P2;SDS_P1;SDS_P2;PMS_P1;PMS_P2;Temp;Humidity;BMP_temperature;BMP_pressure;BME280_temperature;BME280_humidity;BME280_pressure;Samples;Min_cycle;Max_cycle;Signal;HPM_P1;HPM_P2
2020/12/14 00:00:29;;;;;;;23.67;18.97;;;;;;;1.35;96.84;99871.17;1751854;81;21121;-72
2020/12/14 00:02:59;;;;;;;26.27;16.20;;;;;;;1.34;96.91;99875.69;1753025;81;21277;-70
2020/12/14 00:05:26;;;;;;;30.65;18.48;;;;;;;1.36;97.04;99878.13;1752856;81;21515;-69
2020/12/14 00:07:54;;;;;;;25.97;16.90;;;;;;;1.36;96.96;99875.48;1739296;81;21723;-70
2020/12/14 00:10:22;;;;;;;27.15;18.23;;;;;;;1.38;97.02;99877.45;1747906;81;21136;-73
2020/12/14 00:12:50;;;;;;;27.77;16.62;;;;;;;1.36;96.90;99882.10;1735566;82;21141;-72
2020/12/14 00:15:18;;;;;;;28.98;20.10;;;;;;;1.31;96.86;99885.30;1736660;81;21383;-71
2020/12/14 00:17:45;;;;;;;22.95;18.30;;;;;;;1.27;96.88;99880.89;1735463;82;21188;-69
2020/12/14 00:20:13;;;;;;;26.65;18.05;;;;;;;1.30;97.11;99873.06;1748990;81;21181;-71
2020/12/14 00:22:41;;;;;;;36.00;21.62;;;;;;;1.28;97.11;99877.24;1752055;81;21128;-71
2020/12/14 00:25:09;;;;;;;26.07;16.50;;;;;;;1.24;97.11;99886.58;1752710;81;21759;-71
2020/12/14 00:27:37;;;;;;;29.18;19.55;;;;;;;1.25;97.34;99883.39;1752935;81;21443;-72
2020/12/14 00:30:04;;;;;;;31.17;23.67;;;;;;;1.23;97.25;99894.69;1751942;81;21570;-75
2020/12/14 00:32:33;;;;;;;21.42;15.48;;;;;;;1.21;97.31;99883.45;1724004;83;21190;-74
2020/12/14 00:35:01;;;;;;;20.25;13.58;;;;;;;1.23;97.50;99883.59;1723873;83;21166;-74
2020/12/14 00:37:28;;;;;;;24.87;16.73;;;;;;;1.23;97.59;99885.42;1748089;81;21242;-74
2020/12/14 00:39:56;;;;;;;23.50;16.05;;;;;;;1.22;97.61;99887.25;1752907;81;21201;-75
2020/12/14 00:42:23;;;;;;;30.40;22.32;;;;;;;1.23;97.65;99884.09;1752217;81;21109;-74
2020/12/14 00:44:52;;;;;;;25.23;17.25;;;;;;;1.23;97.66;99890.72;1752686;81;21176;-74
2020/12/14 00:47:20;;;;;;;19.70;14.50;;;;;;;1.24;97.66;99889.72;1752793;81;21101;-72
2020/12/14 00:49:48;;;;;;;26.17;18.77;;;;;;;1.20;97.68;99891.10;1752920;81;21732;-72
2020/12/14 00:52:18;;;;;;;19.52;12.82;;;;;;;1.23;97.83;99890.72;1747067;81;22308;-75
2020/12/14 00:54:45;;;;;;;21.37;14.87;;;;;;;1.28;98.01;99891.81;1752856;81;21641;-72
2020/12/14 00:57:13;;;;;;;22.93;16.30;;;;;;;1.27;97.84;99884.04;1752436;81;21018;-73
2020/12/14 00:59:40;;;;;;;25.88;16.73;;;;;;;1.24;97.74;99885.75;1736005;81;21145;-69
2020/12/14 01:02:08;;;;;;;26.60;16.37;;;;;;;1.24;97.84;99886.58;1750147;81;21583;-69
2020/12/14 01:04:38;;;;;;;26.57;17.27;;;;;;;1.24;97.89;99881.27;1752735;81;21396;-71
2020/12/14 01:07:06;;;;;;;19.27;14.15;;;;;;;1.30;98.16;99877.03;1753059;81;21618;-69
2020/12/14 01:09:33;;;;;;;19.42;11.93;;;;;;;1.33;98.12;99881.98;1753195;81;21726;-69
2020/12/14 01:12:03;;;;;;;27.17;17.50;;;;;;;1.31;98.00;99880.01;1741964;81;21132;-71
2020/12/14 01:14:31;;;;;;;23.00;14.43;;;;;;;1.23;97.79;99878.30;1750569;81;21085;-71
2020/12/14 01:16:59;;;;;;;22.62;16.32;;;;;;;1.23;97.92;99880.13;1738431;80;21636;-69
2020/12/14 01:19:27;;;;;;;17.98;12.90;;;;;;;1.20;97.88;99881.30;1750462;82;21070;-68
2020/12/14 01:21:55;;;;;;;24.10;17.00;;;;;;;1.21;98.08;99877.66;1751700;81;21676;-73
2020/12/14 01:24:23;;;;;;;22.60;17.00;;;;;;;1.27;98.17;99880.89;1751530;81;21226;-70
2020/12/14 01:26:50;;;;;;;30.62;19.15;;;;;;;1.24;97.98;99875.16;1742685;81;21574;-70
2020/12/14 01:29:18;;;;;;;21.00;15.20;;;;;;;1.21;97.96;99878.16;1735053;82;22442;-71
2020/12/14 01:31:47;;;;;;;21.65;15.00;;;;;;;1.20;98.03;99880.50;1735490;81;21022;-68
2020/12/14 01:34:15;;;;;;;22.62;16.15;;;;;;;1.22;98.19;99875.33;1735001;82;21065;-70
2020/12/14 01:36:47;;;;;;;26.17;18.00;;;;;;;1.22;98.19;99874.00;1735387;82;21164;-69
2020/12/14 01:39:12;;;;;;;18.62;13.22;;;;;;;1.27;98.32;99878.74;1748324;81;21154;-70
2020/12/14 01:41:40;;;;;;;31.05;20.92;;;;;;;1.29;98.35;99878.89;1752042;81;21195;-70
2020/12/14 01:44:08;;;;;;;27.80;17.35;;;;;;;1.27;98.25;99871.63;1756500;81;21137;-84
2020/12/14 01:46:36;;;;;;;24.10;17.10;;;;;;;1.26;98.18;99870.47;1756515;81;20941;-70
2020/12/14 01:49:05;;;;;;;25.82;15.32;;;;;;;1.26;98.09;99870.47;1737497;81;21184;-72
2020/12/14 01:51:32;;;;;;;24.25;16.30;;;;;;;1.24;98.14;99872.50;1734021;81;21596;-72
2020/12/14 01:54:06;;;;;;;21.23;14.20;;;;;;;1.20;98.15;99872.03;1745208;81;21344;-72
2020/12/14 01:56:33;;;;;;;;;;;;;;;1.22;98.23;99871.85;1735921;81;21211;-71
2020/12/14 01:59:01;;;;;;;23.52;15.25;;;;;;;1.22;98.29;99872.67;1731650;81;20618;-75
2020/12/14 02:01:29;;;;;;;14.03;10.50;;;;;;;1.26;98.32;99867.82;1756858;81;21584;-70
2020/12/14 02:03:57;;;;;;;26.75;17.85;;;;;;;1.33;98.50;99869.23;1746953;81;21140;-71
2020/12/14 02:06:24;;;;;;;19.20;12.50;;;;;;;1.31;98.23;99868.91;1739753;81;21279;-75
2020/12/14 02:08:52;;;;;;;17.45;11.65;;;;;;;1.33;98.27;99873.21;1750584;81;21174;-75
2020/12/14 02:11:20;;;;;;;18.47;12.50;;;;;;;1.28;98.02;99869.80;1756903;81;21004;-76
2020/12/14 02:13:47;;;;;;;18.77;15.33;;;;;;;1.24;98.01;99868.03;1739205;81;21603;-76
2020/12/14 02:16:15;;;;;;;20.12;15.28;;;;;;;1.18;97.96;99868.76;1727186;81;21595;-74
2020/12/14 02:18:43;;;;;;;22.97;18.87;;;;;;;1.18;98.19;99866.11;1726720;83;21947;-75
2020/12/14 02:21:16;;;;;;;26.37;16.37;;;;;;;1.21;98.37;99872.84;1734784;81;21008;-73
2020/12/14 02:23:44;;;;;;;;;;;;;;;1.22;98.35;99870.53;1749723;81;21044;-74
2020/12/14 02:26:11;;;;;;;30.53;20.87;;;;;;;1.18;98.21;99873.23;1756814;81;20485;-78
2020/12/14 02:28:39;;;;;;;24.37;17.20;;;;;;;1.15;98.28;99871.76;1742579;81;22253;-75
2020/12/14 02:31:07;;;;;;;21.63;15.13;;;;;;;1.19;98.39;99874.38;1742124;81;21195;-73
2020/12/14 02:33:34;;;;;;;27.47;17.27;;;;;;;1.17;98.32;99876.38;1734370;81;21137;-73
2020/12/14 02:36:02;;;;;;;20.90;14.13;;;;;;;1.17;98.39;99874.23;1725772;83;21165;-74
2020/12/14 02:38:29;;;;;;;18.90;13.00;;;;;;;1.18;98.51;99871.91;1733130;81;21121;-70
2020/12/14 02:40:57;;;;;;;19.93;14.03;;;;;;;1.18;98.42;99876.70;1755135;81;21586;-71
2020/12/14 02:43:24;;;;;;;17.87;13.80;;;;;;;1.11;98.18;99869.16;1757593;81;21192;-70
2020/12/14 02:45:53;;;;;;;21.80;16.03;;;;;;;1.11;98.32;99866.52;1756779;81;21165;-73
2020/12/14 02:48:21;;;;;;;21.93;15.70;;;;;;;1.07;98.33;99869.22;1730608;81;21220;-70
2020/12/14 02:50:48;;;;;;;21.97;13.45;;;;;;;1.05;98.44;99871.75;1756704;81;21118;-69
2020/12/14 02:53:16;;;;;;;26.67;16.77;;;;;;;1.06;98.63;99876.84;1756741;81;21141;-71
2020/12/14 02:55:44;;;;;;;25.53;17.03;;;;;;;1.09;98.63;99879.64;1755310;81;22160;-71
2020/12/14 02:58:11;;;;;;;19.00;15.20;;;;;;;1.13;98.73;99879.59;1754785;81;21175;-70
2020/12/14 03:00:39;;;;;;;22.73;15.00;;;;;;;1.18;98.75;99870.58;1754655;81;21494;-71
2020/12/14 03:03:07;;;;;;;23.90;16.10;;;;;;;1.17;98.58;99873.73;1754926;81;21047;-71
2020/12/14 03:05:35;;;;;;;22.53;15.77;;;;;;;1.17;98.60;99873.73;1754913;81;21005;-71
2020/12/14 03:08:03;;;;;;;19.52;14.93;;;;;;;1.19;98.63;99872.23;1739341;81;22266;-71
2020/12/14 03:10:30;;;;;;;18.97;11.77;;;;;;;1.17;98.46;99871.58;1756612;81;21582;-74
2020/12/14 03:12:59;;;;;;;19.83;14.10;;;;;;;1.16;98.44;99874.73;1755309;81;21112;-70
2020/12/14 03:15:27;;;;;;;22.00;15.47;;;;;;;1.15;98.45;99873.61;1755698;81;21006;-70
2020/12/14 03:17:55;;;;;;;21.13;15.17;;;;;;;1.19;98.68;99869.08;1756532;81;21115;-71
2020/12/14 03:20:23;;;;;;;19.33;14.70;;;;;;;1.19;98.41;99871.73;1755112;81;21646;-70
2020/12/14 03:22:51;;;;;;;28.83;20.50;;;;;;;1.13;98.27;99871.14;1755032;81;21609;-70
2020/12/14 03:25:19;;;;;;;22.52;18.98;;;;;;;1.14;98.38;99866.66;1754964;81;21173;-70
2020/12/14 03:27:48;;;;;;;32.43;21.20;;;;;;;1.19;98.61;99866.94;1757436;81;21611;-69
2020/12/14 03:30:16;;;;;;;31.75;24.90;;;;;;;1.19;98.29;99867.77;1755577;81;21199;-71
2020/12/14 03:32:43;;;;;;;31.65;22.42;;;;;;;1.13;98.21;99863.70;1756795;81;21340;-70
2020/12/14 03:35:11;;;;;;;28.77;22.90;;;;;;;1.14;98.30;99861.37;1756660;81;21145;-71
2020/12/14 03:37:39;;;;;;;29.20;21.20;;;;;;;1.15;98.37;99866.46;1756704;81;21023;-71
2020/12/14 03:40:06;;;;;;;24.12;17.45;;;;;;;1.16;98.30;99860.16;1750154;81;21609;-71
2020/12/14 03:42:34;;;;;;;25.47;15.13;;;;;;;1.14;98.20;99862.20;1743975;81;21049;-70
2020/12/14 03:45:01;;;;;;;21.63;16.60;;;;;;;1.12;98.13;99869.49;1743941;82;21558;-72
2020/12/14 03:47:30;;;;;;;25.33;17.10;;;;;;;1.09;98.17;99871.19;1756065;81;21120;-70
2020/12/14 03:49:58;;;;;;;22.23;15.77;;;;;;;1.07;98.29;99874.52;1750254;81;21034;-69
2020/12/14 03:52:26;;;;;;;25.13;18.17;;;;;;;1.08;98.42;99865.58;1755891;81;21149;-71
2020/12/14 03:54:53;;;;;;;23.55;16.67;;;;;;;1.06;98.27;99870.72;1756227;81;21148;-71
2020/12/14 03:57:23;;;;;;;17.90;15.07;;;;;;;1.04;98.31;99872.75;1753897;81;21203;-71
2020/12/14 03:59:50;;;;;;;26.07;20.53;;;;;;;1.03;98.37;99873.25;1743360;81;21148;-71
2020/12/14 04:02:18;;;;;;;23.93;17.90;;;;;;;1.03;98.36;99873.25;1755353;81;21121;-70
2020/12/14 04:04:45;;;;;;;17.60;12.53;;;;;;;1.07;98.51;99871.05;1756107;81;21053;-70
2020/12/14 04:07:15;;;;;;;23.87;19.03;;;;;;;1.06;98.45;99868.89;1754515;81;21154;-71
2020/12/14 04:09:44;;;;;;;23.50;16.93;;;;;;;1.06;98.37;99868.06;1751216;81;21034;-71
2020/12/14 04:12:13;;;;;;;20.97;14.63;;;;;;;1.07;98.32;99873.19;1745794;82;21159;-67
2020/12/14 04:14:43;;;;;;;21.30;15.40;;;;;;;1.06;98.32;99871.55;1745470;82;21081;-68
2020/12/14 04:17:11;;;;;;;18.20;13.40;;;;;;;1.02;98.35;99877.39;1744803;81;21164;-71
2020/12/14 04:19:39;;;;;;;24.27;17.37;;;;;;;0.99;98.48;99874.62;1744040;81;21168;-70
2020/12/14 04:22:10;;;;;;;25.93;19.87;;;;;;;0.98;98.51;99879.59;1753906;81;21748;-70
2020/12/14 04:24:37;;;;;;;23.33;17.07;;;;;;;1.01;98.52;99883.72;1743951;82;21545;-69
2020/12/14 04:27:06;;;;;;;27.10;18.63;;;;;;;1.03;98.51;99881.69;1751443;81;21137;-70
2020/12/14 04:29:33;;;;;;;17.27;13.27;;;;;;;1.03;98.52;99881.19;1755995;81;21208;-72
2020/12/14 04:32:01;;;;;;;18.93;13.33;;;;;;;1.06;98.63;99886.61;1756113;81;21197;-69
2020/12/14 04:34:29;;;;;;;25.63;19.40;;;;;;;1.09;98.72;99884.44;1756093;81;21371;-70
2020/12/14 04:36:56;;;;;;;20.13;14.73;;;;;;;1.09;98.46;99892.88;1756104;81;21557;-70
2020/12/14 04:39:24;;;;;;;23.23;16.60;;;;;;;1.09;98.38;99894.20;1739207;81;21121;-70
2020/12/14 04:41:57;;;;;;;20.33;16.20;;;;;;;1.08;98.37;99894.70;1752991;81;21157;-71
2020/12/14 04:44:24;;;;;;;23.77;18.55;;;;;;;1.13;98.52;99900.27;1753148;81;21160;-70
2020/12/14 04:46:54;;;;;;;17.25;13.50;;;;;;;1.26;98.91;99902.26;1750881;81;21886;-72
2020/12/14 04:49:22;;;;;;;18.67;13.50;;;;;;;1.35;98.81;99902.47;1744640;81;21419;-70
2020/12/14 04:51:51;;;;;;;16.40;11.90;;;;;;;1.31;98.17;99903.36;1753007;81;21101;-71
2020/12/14 04:54:20;;;;;;;16.37;11.93;;;;;;;1.26;98.01;99900.44;1696714;83;21202;-70
2020/12/14 04:56:48;;;;;;;21.67;14.83;;;;;;;1.23;97.80;99903.47;1689319;85;21145;-71
2020/12/14 04:59:15;;;;;;;20.05;13.68;;;;;;;1.16;97.64;99901.22;1699750;83;21398;-68
2020/12/14 05:01:43;;;;;;;21.53;15.10;;;;;;;1.15;97.72;99907.52;1717090;83;21172;-71
2020/12/14 05:04:11;;;;;;;19.20;13.90;;;;;;;1.10;97.67;99901.16;1686855;85;21548;-70
2020/12/14 05:06:49;;;;;;;18.90;13.60;;;;;;;1.12;97.82;99907.89;1703024;83;21895;-70
2020/12/14 05:09:20;;;;;;;19.33;13.37;;;;;;;1.12;97.76;99914.52;1680388;84;21618;-72
2020/12/14 05:11:48;;;;;;;19.20;14.73;;;;;;;1.13;97.79;99914.02;1688118;85;21226;-70
2020/12/14 05:14:25;;;;;;;27.30;14.95;;;;;;;1.15;97.93;99915.99;1686771;85;21169;-69
2020/12/14 05:16:53;;;;;;;26.77;17.07;;;;;;;1.18;97.85;99916.94;1688227;85;21207;-72
2020/12/14 05:19:28;;;;;;;23.50;17.20;;;;;;;1.19;97.90;99922.06;1704310;83;21161;-71
2020/12/14 05:22:01;;;;;;;24.00;18.47;;;;;;;1.21;97.83;99920.53;1716781;83;21154;-68
2020/12/14 05:24:30;;;;;;;24.12;18.10;;;;;;;1.21;97.73;99931.13;1717278;83;22282;-71
2020/12/14 05:27:00;;;;;;;23.53;17.87;;;;;;;1.17;97.53;99930.68;1700539;83;21229;-70
2020/12/14 05:29:30;;;;;;;19.30;14.70;;;;;;;1.13;97.58;99937.86;1714998;83;21157;-69
2020/12/14 05:32:12;;;;;;;22.42;16.57;;;;;;;1.17;97.77;99938.63;1717001;83;21209;-69
2020/12/14 05:34:42;;;;;;;24.70;16.10;;;;;;;1.16;97.70;99938.80;1708342;83;21165;-70
2020/12/14 05:37:13;;;;;;;24.40;15.50;;;;;;;1.19;97.75;99937.12;1677568;85;21223;-69
2020/12/14 05:39:42;;;;;;;22.27;13.73;;;;;;;1.15;97.50;99934.53;1717451;83;21539;-72
2020/12/14 05:42:19;;;;;;;24.13;16.13;;;;;;;1.12;97.43;99937.03;1721531;82;21539;-70
2020/12/14 05:44:49;;;;;;;27.23;16.20;;;;;;;1.09;97.45;99933.44;1691492;84;21140;-71
2020/12/14 05:47:32;;;;;;;23.23;16.03;;;;;;;1.05;97.56;99936.63;1707892;83;21578;-71
2020/12/14 05:50:01;;;;;;;20.73;16.10;;;;;;;1.05;97.67;99937.45;1691534;84;22124;-69
2020/12/14 05:52:32;;;;;;;25.50;15.50;;;;;;;1.05;97.67;99944.58;1689875;84;21231;-69
2020/12/14 05:55:01;;;;;;;21.03;15.87;;;;;;;1.05;97.73;99941.43;1691546;84;21124;-71
2020/12/14 05:57:32;;;;;;;21.47;16.70;;;;;;;1.04;97.66;99947.72;1689932;84;21619;-71
2020/12/14 06:00:10;;;;;;;26.57;15.57;;;;;;;1.03;97.65;99950.55;1691549;84;21133;-69
2020/12/14 06:02:38;;;;;;;21.00;14.00;;;;;;;1.03;97.72;99953.19;1690178;84;21372;-70
2020/12/14 06:05:07;;;;;;;17.57;13.20;;;;;;;1.04;97.83;99946.40;1691569;84;21137;-69
2020/12/14 06:07:37;;;;;;;18.05;15.10;;;;;;;1.03;97.81;99955.34;1690620;84;21133;-70
2020/12/14 06:10:13;;;;;;;18.75;15.48;;;;;;;1.02;97.71;99949.72;1700163;84;21611;-70
2020/12/14 06:12:47;;;;;;;27.53;14.67;;;;;;;1.02;97.74;99958.98;1720498;83;21200;-70
2020/12/14 06:15:17;;;;;;;25.12;13.13;;;;;;;1.05;97.84;99956.49;1691816;84;21278;-70
2020/12/14 06:17:47;;;;;;;29.00;18.27;;;;;;;1.08;97.88;99958.77;1690002;84;21221;-68
2020/12/14 06:20:18;;;;;;;22.77;14.95;;;;;;;1.04;97.77;99962.29;1719436;82;21070;-72
2020/12/14 06:23:00;;;;;;;20.60;13.93;;;;;;;1.04;97.86;99966.27;1720052;83;21046;-68
2020/12/14 06:25:28;;;;;;;21.17;15.27;;;;;;;1.04;97.81;99972.88;1721782;83;21134;-70
2020/12/14 06:27:56;;;;;;;22.63;17.00;;;;;;;1.03;97.92;99974.38;1686475;85;21384;-70
2020/12/14 06:30:31;;;;;;;25.20;17.97;;;;;;;1.06;98.02;99980.63;1675336;84;21190;-69
2020/12/14 06:33:12;;;;;;;28.93;19.90;;;;;;;1.09;98.04;99982.93;1682797;85;21174;-70
2020/12/14 06:35:53;;;;;;;21.17;14.67;;;;;;;1.09;97.97;99988.23;1682685;85;21161;-69
2020/12/14 06:38:40;;;;;;;25.47;18.93;;;;;;;1.06;97.83;99986.75;1698649;84;21126;-69
2020/12/14 06:41:21;;;;;;;30.40;22.33;;;;;;;1.04;97.91;99986.63;1695843;83;21368;-72
2020/12/14 06:44:03;;;;;;;26.00;19.37;;;;;;;1.08;98.21;99988.73;1690081;84;21177;-71
2020/12/14 06:46:32;;;;;;;24.10;17.60;;;;;;;1.20;98.43;99988.58;1645221;86;21648;-70
2020/12/14 06:49:01;;;;;;;37.57;27.40;;;;;;;1.23;98.20;99988.23;1676342;84;21660;-70
2020/12/14 06:51:50;;;;;;;44.23;29.03;;;;;;;1.22;97.98;99987.09;1682868;85;21181;-70
2020/12/14 06:54:45;;;;;;;32.87;24.73;;;;;;;1.28;98.07;99980.56;1688465;85;21388;-70
2020/12/14 06:57:20;;;;;;;36.60;23.20;;;;;;;1.32;97.97;99982.34;1686870;85;21193;-70
2020/12/14 06:59:51;;;;;;;38.70;26.60;;;;;;;1.31;97.72;99979.36;1714296;83;21130;-70
2020/12/14 07:02:21;;;;;;;26.45;19.05;;;;;;;1.29;97.69;99988.02;1713097;83;21096;-69
2020/12/14 07:04:49;;;;;;;26.40;18.57;;;;;;;1.35;97.81;99979.81;1687362;83;21185;-69
2020/12/14 07:07:28;;;;;;;33.67;22.87;;;;;;;1.34;97.52;99990.12;1716180;83;21610;-69
2020/12/14 07:10:14;;;;;;;32.33;20.90;;;;;;;1.29;97.37;99982.72;1713008;83;21185;-71
2020/12/14 07:12:44;;;;;;;26.70;17.50;;;;;;;1.31;97.49;99979.36;1686870;84;21157;-70
2020/12/14 07:15:27;;;;;;;32.13;22.32;;;;;;;1.34;97.43;99983.49;1715958;83;21552;-69
2020/12/14 07:18:03;;;;;;;31.80;20.15;;;;;;;1.37;97.50;99987.09;1717284;83;21196;-69
2020/12/14 07:20:31;;;;;;;30.87;18.60;;;;;;;1.40;97.39;99994.16;1669250;85;21448;-69
2020/12/14 07:23:07;;;;;;;39.43;24.87;;;;;;;1.41;97.29;99991.02;1669326;84;21157;-69
2020/12/14 07:25:35;;;;;;;40.67;29.30;;;;;;;1.39;97.05;99991.19;1659088;86;21150;-70
2020/12/14 07:28:03;;;;;;;40.80;24.53;;;;;;;1.37;97.03;99993.21;1659011;85;21165;-70
2020/12/14 07:30:31;;;;;;;40.15;25.05;;;;;;;1.38;97.03;99994.04;1668672;85;21699;-69
2020/12/14 07:32:59;;;;;;;29.90;24.47;;;;;;;1.39;97.09;99993.83;1686866;85;21394;-69
2020/12/14 07:35:27;;;;;;;34.80;22.60;;;;;;;1.39;97.01;99993.04;1686563;85;21020;-69
2020/12/14 07:37:55;;;;;;;28.60;20.23;;;;;;;1.41;97.14;99997.64;1686801;85;21210;-69
2020/12/14 07:40:23;;;;;;;29.60;21.90;;;;;;;1.36;96.68;99999.51;1678877;85;21647;-70
2020/12/14 07:42:51;;;;;;;30.70;20.53;;;;;;;1.25;96.41;100005.25;1710794;83;21873;-69
2020/12/14 07:45:23;;;;;;;24.92;17.67;;;;;;;1.22;96.68;100009.61;1717111;83;21970;-69
2020/12/14 07:47:53;;;;;;;24.63;16.97;;;;;;;1.24;96.91;100006.28;1717076;83;21132;-70
2020/12/14 07:50:26;;;;;;;24.43;15.70;;;;;;;1.25;96.98;100009.23;1716181;83;21187;-69
2020/12/14 07:52:54;;;;;;;25.35;18.82;;;;;;;1.23;96.94;100012.58;1717940;83;21149;-70
2020/12/14 07:55:25;;;;;;;17.17;11.35;;;;;;;1.19;96.86;100008.16;1717906;83;21125;-71
2020/12/14 07:57:55;;;;;;;28.57;21.20;;;;;;;1.20;96.91;100009.77;1717329;83;21270;-70
2020/12/14 08:00:24;;;;;;;21.63;16.27;;;;;;;1.19;97.00;100018.75;1710362;83;21246;-68
2020/12/14 08:03:03;;;;;;;27.10;20.60;;;;;;;1.22;97.14;100018.88;1718960;83;21002;-68
2020/12/14 08:05:30;;;;;;;22.05;18.42;;;;;;;1.22;97.09;100018.88;1690050;84;21047;-70
2020/12/14 08:08:05;;;;;;;20.23;15.13;;;;;;;1.25;97.30;100023.30;1690118;84;21162;-69
2020/12/14 08:10:34;;;;;;;20.12;15.50;;;;;;;1.29;97.31;100023.78;1687739;84;21706;-68
2020/12/14 08:13:13;;;;;;;28.12;21.62;;;;;;;1.34;97.27;100024.56;1715617;83;21019;-71
2020/12/14 08:15:44;;;;;;;32.05;24.90;;;;;;;1.38;97.36;100022.69;1717100;83;21026;-70
2020/12/14 08:18:13;;;;;;;32.93;25.08;;;;;;;1.50;97.64;100026.52;1715847;83;21571;-69
2020/12/14 08:20:41;;;;;;;39.35;26.37;;;;;;;1.54;97.42;100025.13;1663896;83;21614;-69
2020/12/14 08:23:21;;;;;;;30.60;23.22;;;;;;;1.52;97.15;100019.21;1710181;83;21387;-68
2020/12/14 08:25:51;;;;;;;33.83;23.60;;;;;;;1.51;96.90;100019.38;1720371;83;21655;-67
2020/12/14 08:28:34;;;;;;;31.07;23.35;;;;;;;1.45;96.54;100015.64;1720553;83;21718;-68
2020/12/14 08:31:06;;;;;;;40.95;28.98;;;;;;;1.43;96.49;100012.37;1718831;82;21552;-70
2020/12/14 08:33:33;;;;;;;23.85;17.98;;;;;;;1.45;96.54;100007.69;1701852;84;21194;-68
2020/12/14 08:36:08;;;;;;;33.33;25.48;;;;;;;1.51;96.67;100001.66;1634059;85;22169;-69
2020/12/14 08:38:36;;;;;;;28.15;20.62;;;;;;;1.53;96.51;100006.28;1683066;85;21150;-70
2020/12/14 08:41:05;;;;;;;34.45;24.20;;;;;;;1.56;96.49;100007.73;1674337;84;21609;-69
2020/12/14 08:43:34;;;;;;;26.15;18.90;;;;;;;1.52;96.21;100005.13;1684147;85;21194;-68
2020/12/14 08:46:15;;;;;;;33.78;21.65;;;;;;;1.47;96.00;99996.41;1712312;83;21602;-71
2020/12/14 08:48:50;;;;;;;30.48;21.42;;;;;;;1.41;95.92;99998.46;1690098;84;22281;-70
2020/12/14 08:51:31;;;;;;;32.53;20.68;;;;;;;1.40;96.17;100000.78;1689996;84;21027;-69
2020/12/14 08:54:15;;;;;;;29.45;20.85;;;;;;;1.44;96.28;100001.27;1689867;84;21063;-68
2020/12/14 08:56:44;;;;;;;22.40;16.17;;;;;;;1.36;95.77;100006.63;1687452;83;21181;-69
2020/12/14 08:59:19;;;;;;;16.93;13.18;;;;;;;1.35;95.96;100003.16;1682933;85;21126;-68
2020/12/14 09:02:02;;;;;;;17.48;14.58;;;;;;;1.38;95.98;100003.31;1682934;85;21436;-68
2020/12/14 09:04:32;;;;;;;18.98;13.72;;;;;;;1.38;95.83;99998.02;1683855;85;21196;-68
2020/12/14 09:07:00;;;;;;;20.80;14.53;;;;;;;1.37;95.85;99990.56;1687889;85;21132;-69
2020/12/14 09:09:33;;;;;;;34.53;20.82;;;;;;;1.40;95.93;99989.36;1688204;85;21224;-68
2020/12/14 09:12:02;;;;;;;23.40;16.73;;;;;;;1.40;95.87;99986.21;1715909;83;21166;-69
2020/12/14 09:14:31;;;;;;;26.15;19.23;;;;;;;1.42;95.74;99990.84;1717021;83;21380;-70
2020/12/14 09:17:03;;;;;;;26.60;21.00;;;;;;;1.47;95.86;99988.96;1717524;83;21141;-71
2020/12/14 09:19:33;;;;;;;25.80;18.63;;;;;;;1.54;95.89;99988.03;1716031;83;21185;-70
2020/12/14 09:22:02;;;;;;;24.30;17.40;;;;;;;1.59;95.76;99984.33;1717103;83;21217;-69
2020/12/14 09:24:33;;;;;;;20.92;18.20;;;;;;;1.65;95.86;99979.61;1705995;83;21130;-70
2020/12/14 09:27:10;;;;;;;20.95;16.77;;;;;;;1.74;95.77;99978.50;1713143;83;21217;-70
2020/12/14 09:29:39;;;;;;;28.25;18.90;;;;;;;1.69;95.09;99972.93;1694826;83;21574;-71
2020/12/14 09:32:07;;;;;;;20.52;16.12;;;;;;;1.64;95.04;99980.61;1673814;85;21172;-67
2020/12/14 09:34:36;;;;;;;22.30;17.35;;;;;;;1.60;94.92;99979.84;1715840;83;21035;-69
2020/12/14 09:37:03;;;;;;;25.02;18.25;;;;;;;1.53;94.85;99978.45;1690158;83;21365;-71
2020/12/14 09:39:31;;;;;;;23.50;16.87;;;;;;;1.50;94.95;99976.66;1688295;85;21219;-68
2020/12/14 09:42:00;;;;;;;25.27;16.10;;;;;;;1.49;95.11;99975.00;1688046;84;22105;-69
2020/12/14 09:44:30;;;;;;;17.73;14.07;;;;;;;1.45;95.02;99973.23;1688351;85;21120;-68
2020/12/14 09:47:00;;;;;;;19.62;14.53;;;;;;;1.43;95.08;99967.31;1693057;83;21201;-68
2020/12/14 09:49:28;;;;;;;19.00;13.20;;;;;;;1.42;95.12;99973.61;1709021;83;21196;-69
2020/12/14 09:51:56;;;;;;;18.42;14.00;;;;;;;1.42;95.22;99976.77;1699950;83;21463;-74
2020/12/14 09:54:24;;;;;;;22.17;13.35;;;;;;;1.42;95.26;99975.44;1709373;83;21205;-74
2020/12/14 09:56:52;;;;;;;24.27;16.42;;;;;;;1.43;95.26;99975.77;1717000;83;21229;-71
2020/12/14 09:59:20;;;;;;;28.67;15.72;;;;;;;1.42;95.44;99973.61;1693026;83;21138;-72
2020/12/14 10:01:48;;;;;;;30.30;17.98;;;;;;;1.46;95.44;99976.20;1717069;83;21137;-74
2020/12/14 10:04:16;;;;;;;26.07;14.50;;;;;;;1.45;95.36;99979.03;1717810;83;22181;-73
2020/12/14 10:06:48;;;;;;;18.87;13.35;;;;;;;1.48;95.46;99982.16;1701858;83;21632;-71
2020/12/14 10:09:16;;;;;;;20.08;14.80;;;;;;;1.49;95.27;99982.95;1700036;83;21051;-70
2020/12/14 10:11:43;;;;;;;18.15;14.35;;;;;;;1.48;95.17;99987.96;1688513;85;21624;-69
2020/12/14 10:14:12;;;;;;;16.30;12.50;;;;;;;1.47;95.18;99988.46;1701508;84;21121;-72
2020/12/14 10:16:39;;;;;;;20.43;14.55;;;;;;;1.48;95.13;99988.78;1674445;85;21387;-70
2020/12/14 10:19:09;;;;;;;16.80;13.20;;;;;;;1.51;95.12;99997.69;1682850;85;21233;-69
2020/12/14 10:21:37;;;;;;;17.52;12.23;;;;;;;1.56;95.16;100004.58;1685575;85;21146;-69
2020/12/14 10:24:05;;;;;;;27.15;17.75;;;;;;;1.61;95.10;100010.16;1706558;83;21194;-70
2020/12/14 10:26:33;;;;;;;23.15;15.88;;;;;;;1.64;95.12;100012.92;1714028;83;21134;-70
2020/12/14 10:29:01;;;;;;;18.95;13.13;;;;;;;1.65;94.81;100020.70;1719605;83;21610;-69
2020/12/14 10:31:29;;;;;;;19.90;15.72;;;;;;;1.61;94.58;100017.28;1708591;83;29898;-72
2020/12/14 10:33:59;;;;;;;22.17;16.55;;;;;;;1.60;94.61;100020.44;1688328;83;21126;-69
2020/12/14 10:36:27;;;;;;;27.25;17.15;;;;;;;1.61;94.61;100011.48;1705328;83;21177;-71
2020/12/14 10:38:54;;;;;;;21.80;16.80;;;;;;;1.65;94.68;100014.58;1716979;83;21619;-72
2020/12/14 10:41:23;;;;;;;21.52;15.85;;;;;;;1.68;94.65;100015.52;1696956;83;21205;-73
2020/12/14 10:43:50;;;;;;;20.02;14.60;;;;;;;1.69;94.56;100016.67;1701532;84;21110;-70
2020/12/14 10:46:25;;;;;;;23.50;16.32;;;;;;;1.70;94.41;100014.84;1682678;85;21158;-71
2020/12/14 10:48:54;;;;;;;21.35;15.48;;;;;;;1.70;94.36;100017.00;1697607;83;21639;-71
2020/12/14 10:51:23;;;;;;;21.87;16.95;;;;;;;1.63;93.88;100013.42;1720585;83;21178;-71
2020/12/14 10:53:50;;;;;;;22.20;16.73;;;;;;;1.59;93.94;100013.98;1720518;82;22723;-71
2020/12/14 10:56:18;;;;;;;25.88;18.45;;;;;;;1.60;94.14;100009.83;1716276;82;21157;-72
2020/12/14 10:58:46;;;;;;;28.17;18.60;;;;;;;1.58;94.03;100007.86;1691011;83;21651;-72
2020/12/14 11:01:14;;;;;;;27.85;20.02;;;;;;;1.58;94.11;100007.06;1697828;83;21213;-71
2020/12/14 11:03:42;;;;;;;21.55;16.42;;;;;;;1.58;94.11;99998.58;1717906;83;21170;-71
2020/12/14 11:06:10;;;;;;;33.05;23.30;;;;;;;1.61;94.19;99993.42;1691614;84;22278;-69
2020/12/14 11:08:39;;;;;;;25.00;18.62;;;;;;;1.59;94.03;99989.62;1691481;84;21058;-71
2020/12/14 11:11:07;;;;;;;29.75;18.57;;;;;;;1.64;94.23;99992.55;1693407;83;21657;-69
2020/12/14 11:13:34;;;;;;;26.77;17.50;;;;;;;1.71;94.13;99997.44;1691596;84;21184;-70
2020/12/14 11:16:02;;;;;;;25.92;19.45;;;;;;;1.70;93.97;99997.11;1660560;86;21161;-72
2020/12/14 11:18:30;;;;;;;32.20;21.40;;;;;;;1.72;93.96;99998.27;1715555;83;21353;-71
2020/12/14 11:20:57;;;;;;;33.15;20.82;;;;;;;1.74;93.91;99998.88;1716980;83;21220;-69
2020/12/14 11:23:25;;;;;;;35.90;22.60;;;;;;;1.70;93.67;100004.24;1664279;85;21651;-67
2020/12/14 11:25:53;;;;;;;25.65;16.55;;;;;;;1.63;93.64;100000.17;1701672;84;21044;-70
2020/12/14 11:28:21;;;;;;;33.60;20.62;;;;;;;1.60;93.78;99998.41;1683088;85;21012;-69
2020/12/14 11:30:48;;;;;;;34.43;20.52;;;;;;;1.56;94.10;99997.13;1683391;85;21217;-69
2020/12/14 11:33:16;;;;;;;28.07;17.62;;;;;;;1.60;94.28;100002.38;1661382;85;21669;-72
2020/12/14 11:35:44;;;;;;;36.38;21.40;;;;;;;1.62;94.25;99997.23;1689060;83;21159;-73